sensor_id;sensor_type;location;lat;lon;timestamp;P1;durP1;ratioP1;P2;durP2;ratioP2
23716;SDS011;22094;52.130;5.598;2023-01-29T00:00:39;31.38;;;18.60;;
23716;SDS011;22094;52.130;5.598;2023-01-29T00:03:05;30.80;;;18.65;;
23716;SDS011;22094;52.130;5.598;2023-01-29T00:05:30;31.25;;;18.80;;
23716;SDS011;22094;52.130;5.598;2023-01-29T00:07:56;31.02;;;20.63;;
23716;SDS011;22094;52.130;5.598;2023-01-29T00:10:22;31.00;;;19.52;;
23716;SDS011;22094;52.130;5.598;2023-01-29T00:12:49;35.35;;;21.00;;
23716;SDS011;22094;52.130;5.598;2023-01-29T00:15:15;32.22;;;20.10;;
23716;SDS011;22094;52.130;5.598;2023-01-29T00:17:41;32.35;;;19.92;;
23716;SDS011;22094;52.130;5.598;2023-01-29T00:20:07;35.65;;;20.27;;
23716;SDS011;22094;52.130;5.598;2023-01-29T00:22:33;33.88;;;20.30;;
23716;SDS011;22094;52.130;5.598;2023-01-29T00:24:59;34.72;;;19.48;;
23716;SDS011;22094;52.130;5.598;2023-01-29T00:27:24;32.47;;;19.25;;
23716;SDS011;22094;52.130;5.598;2023-01-29T00:29:50;33.90;;;20.63;;
23716;SDS011;22094;52.130;5.598;2023-01-29T00:32:35;33.05;;;20.20;;
23716;SDS011;22094;52.130;5.598;2023-01-29T00:35:01;36.20;;;20.10;;
23716;SDS011;22094;52.130;5.598;2023-01-29T00:37:27;34.85;;;20.58;;
23716;SDS011;22094;52.130;5.598;2023-01-29T00:39:52;32.35;;;19.88;;
23716;SDS011;22094;52.130;5.598;2023-01-29T00:42:18;34.35;;;21.50;;
23716;SDS011;22094;52.130;5.598;2023-01-29T00:45:02;31.42;;;20.48;;
23716;SDS011;22094;52.130;5.598;2023-01-29T00:47:27;36.03;;;21.33;;
23716;SDS011;22094;52.130;5.598;2023-01-29T00:50:00;36.08;;;21.83;;
23716;SDS011;22094;52.130;5.598;2023-01-29T00:52:43;34.75;;;20.65;;
23716;SDS011;22094;52.130;5.598;2023-01-29T00:55:10;35.80;;;20.70;;
23716;SDS011;22094;52.130;5.598;2023-01-29T00:57:36;38.30;;;22.10;;
23716;SDS011;22094;52.130;5.598;2023-01-29T01:00:03;37.45;;;21.75;;
23716;SDS011;22094;52.130;5.598;2023-01-29T01:02:30;36.22;;;21.52;;
23716;SDS011;22094;52.130;5.598;2023-01-29T01:05:15;34.65;;;21.05;;
23716;SDS011;22094;52.130;5.598;2023-01-29T01:07:49;34.47;;;20.90;;
23716;SDS011;22094;52.130;5.598;2023-01-29T01:10:17;31.33;;;20.13;;
23716;SDS011;22094;52.130;5.598;2023-01-29T01:12:51;35.42;;;20.70;;
23716;SDS011;22094;52.130;5.598;2023-01-29T01:15:19;33.63;;;21.30;;
23716;SDS011;22094;52.130;5.598;2023-01-29T01:17:46;34.67;;;20.63;;
23716;SDS011;22094;52.130;5.598;2023-01-29T01:20:13;39.65;;;22.10;;
23716;SDS011;22094;52.130;5.598;2023-01-29T01:22:39;35.10;;;20.52;;
23716;SDS011;22094;52.130;5.598;2023-01-29T01:25:05;37.15;;;21.95;;
23716;SDS011;22094;52.130;5.598;2023-01-29T01:27:30;39.38;;;22.25;;
23716;SDS011;22094;52.130;5.598;2023-01-29T01:29:56;36.90;;;22.63;;
23716;SDS011;22094;52.130;5.598;2023-01-29T01:32:22;40.55;;;22.50;;
23716;SDS011;22094;52.130;5.598;2023-01-29T01:34:47;36.17;;;21.35;;
23716;SDS011;22094;52.130;5.598;2023-01-29T01:37:13;35.47;;;22.23;;
23716;SDS011;22094;52.130;5.598;2023-01-29T01:39:38;35.75;;;20.85;;
23716;SDS011;22094;52.130;5.598;2023-01-29T01:42:05;35.50;;;22.02;;
23716;SDS011;22094;52.130;5.598;2023-01-29T01:44:53;34.25;;;21.95;;
23716;SDS011;22094;52.130;5.598;2023-01-29T01:47:25;32.47;;;20.70;;
23716;SDS011;22094;52.130;5.598;2023-01-29T01:50:13;34.08;;;21.73;;
23716;SDS011;22094;52.130;5.598;2023-01-29T01:52:44;33.10;;;20.65;;
23716;SDS011;22094;52.130;5.598;2023-01-29T01:55:17;34.38;;;20.95;;
23716;SDS011;22094;52.130;5.598;2023-01-29T01:57:47;32.75;;;20.05;;
23716;SDS011;22094;52.130;5.598;2023-01-29T02:00:19;32.95;;;20.05;;
23716;SDS011;22094;52.130;5.598;2023-01-29T02:02:48;32.63;;;20.00;;
23716;SDS011;22094;52.130;5.598;2023-01-29T02:05:32;30.95;;;19.85;;
23716;SDS011;22094;52.130;5.598;2023-01-29T02:08:18;35.25;;;21.52;;
23716;SDS011;22094;52.130;5.598;2023-01-29T02:11:32;33.95;;;21.20;;
23716;SDS011;22094;52.130;5.598;2023-01-29T02:13:57;31.42;;;20.33;;
23716;SDS011;22094;52.130;5.598;2023-01-29T02:16:23;31.13;;;20.58;;
23716;SDS011;22094;52.130;5.598;2023-01-29T02:18:49;32.58;;;20.92;;
23716;SDS011;22094;52.130;5.598;2023-01-29T02:24:21;29.30;;;19.42;;
23716;SDS011;22094;52.130;5.598;2023-01-29T02:27:12;33.28;;;20.63;;
23716;SDS011;22094;52.130;5.598;2023-01-29T02:29:58;31.02;;;20.15;;
23716;SDS011;22094;52.130;5.598;2023-01-29T02:32:50;34.65;;;20.45;;
23716;SDS011;22094;52.130;5.598;2023-01-29T02:38:25;36.67;;;20.95;;
23716;SDS011;22094;52.130;5.598;2023-01-29T02:46:13;33.03;;;19.73;;
23716;SDS011;22094;52.130;5.598;2023-01-29T02:52:00;34.28;;;20.60;;
23716;SDS011;22094;52.130;5.598;2023-01-29T02:57:14;37.05;;;21.70;;
23716;SDS011;22094;52.130;5.598;2023-01-29T03:02:41;31.95;;;20.13;;
23716;SDS011;22094;52.130;5.598;2023-01-29T03:05:23;33.90;;;20.05;;
23716;SDS011;22094;52.130;5.598;2023-01-29T03:07:58;30.73;;;19.17;;
23716;SDS011;22094;52.130;5.598;2023-01-29T03:10:47;30.85;;;19.55;;
23716;SDS011;22094;52.130;5.598;2023-01-29T03:13:31;32.38;;;19.92;;
23716;SDS011;22094;52.130;5.598;2023-01-29T03:16:19;33.20;;;21.27;;
23716;SDS011;22094;52.130;5.598;2023-01-29T03:19:00;33.25;;;21.33;;
23716;SDS011;22094;52.130;5.598;2023-01-29T03:21:31;35.17;;;21.48;;
23716;SDS011;22094;52.130;5.598;2023-01-29T03:24:16;33.03;;;20.17;;
23716;SDS011;22094;52.130;5.598;2023-01-29T03:27:06;36.97;;;20.92;;
23716;SDS011;22094;52.130;5.598;2023-01-29T03:29:54;32.42;;;19.67;;
23716;SDS011;22094;52.130;5.598;2023-01-29T03:32:41;35.55;;;20.83;;
23716;SDS011;22094;52.130;5.598;2023-01-29T03:35:09;36.03;;;20.50;;
23716;SDS011;22094;52.130;5.598;2023-01-29T03:37:39;35.60;;;21.27;;
23716;SDS011;22094;52.130;5.598;2023-01-29T03:40:09;38.83;;;20.92;;
23716;SDS011;22094;52.130;5.598;2023-01-29T03:45:28;37.58;;;20.85;;
23716;SDS011;22094;52.130;5.598;2023-01-29T03:48:23;34.90;;;21.27;;
23716;SDS011;22094;52.130;5.598;2023-01-29T03:51:10;33.83;;;21.13;;
23716;SDS011;22094;52.130;5.598;2023-01-29T03:54:20;39.90;;;20.77;;
23716;SDS011;22094;52.130;5.598;2023-01-29T03:59:38;38.33;;;21.92;;
23716;SDS011;22094;52.130;5.598;2023-01-29T04:02:22;37.50;;;22.17;;
23716;SDS011;22094;52.130;5.598;2023-01-29T04:04:58;37.33;;;22.48;;
23716;SDS011;22094;52.130;5.598;2023-01-29T04:07:29;36.60;;;22.33;;
23716;SDS011;22094;52.130;5.598;2023-01-29T04:10:07;35.83;;;22.10;;
23716;SDS011;22094;52.130;5.598;2023-01-29T04:12:40;37.15;;;22.38;;
23716;SDS011;22094;52.130;5.598;2023-01-29T04:15:12;33.75;;;22.27;;
23716;SDS011;22094;52.130;5.598;2023-01-29T04:17:40;36.03;;;22.20;;
23716;SDS011;22094;52.130;5.598;2023-01-29T04:20:09;35.67;;;22.75;;
23716;SDS011;22094;52.130;5.598;2023-01-29T04:22:37;38.28;;;22.60;;
23716;SDS011;22094;52.130;5.598;2023-01-29T04:25:06;36.05;;;22.48;;
23716;SDS011;22094;52.130;5.598;2023-01-29T04:27:51;37.10;;;22.83;;
23716;SDS011;22094;52.130;5.598;2023-01-29T04:30:45;35.97;;;21.85;;
23716;SDS011;22094;52.130;5.598;2023-01-29T04:33:24;39.28;;;22.17;;
23716;SDS011;22094;52.130;5.598;2023-01-29T04:36:19;36.53;;;22.75;;
23716;SDS011;22094;52.130;5.598;2023-01-29T04:39:09;38.15;;;22.90;;
23716;SDS011;22094;52.130;5.598;2023-01-29T04:49:31;41.65;;;23.58;;
23716;SDS011;22094;52.130;5.598;2023-01-29T04:55:03;38.65;;;23.67;;
23716;SDS011;22094;52.130;5.598;2023-01-29T04:57:52;42.35;;;24.20;;
23716;SDS011;22094;52.130;5.598;2023-01-29T05:00:25;40.42;;;23.35;;
23716;SDS011;22094;52.130;5.598;2023-01-29T05:02:56;41.55;;;23.23;;
23716;SDS011;22094;52.130;5.598;2023-01-29T05:05:24;37.72;;;23.98;;
23716;SDS011;22094;52.130;5.598;2023-01-29T05:07:50;41.33;;;24.42;;
23716;SDS011;22094;52.130;5.598;2023-01-29T05:10:17;40.72;;;22.70;;
23716;SDS011;22094;52.130;5.598;2023-01-29T05:12:45;38.85;;;24.67;;
23716;SDS011;22094;52.130;5.598;2023-01-29T05:15:17;39.83;;;24.98;;
23716;SDS011;22094;52.130;5.598;2023-01-29T05:17:49;36.78;;;23.52;;
23716;SDS011;22094;52.130;5.598;2023-01-29T05:20:17;41.15;;;23.83;;
23716;SDS011;22094;52.130;5.598;2023-01-29T05:22:44;41.78;;;24.95;;
23716;SDS011;22094;52.130;5.598;2023-01-29T05:25:23;41.95;;;24.33;;
23716;SDS011;22094;52.130;5.598;2023-01-29T05:27:50;38.85;;;24.35;;
23716;SDS011;22094;52.130;5.598;2023-01-29T05:30:36;40.63;;;23.58;;
23716;SDS011;22094;52.130;5.598;2023-01-29T05:33:03;38.45;;;23.65;;
23716;SDS011;22094;52.130;5.598;2023-01-29T05:35:35;44.83;;;23.65;;
23716;SDS011;22094;52.130;5.598;2023-01-29T05:38:01;35.65;;;22.27;;
23716;SDS011;22094;52.130;5.598;2023-01-29T05:40:26;37.70;;;23.13;;
23716;SDS011;22094;52.130;5.598;2023-01-29T05:42:52;38.22;;;23.42;;
23716;SDS011;22094;52.130;5.598;2023-01-29T05:45:23;39.65;;;24.00;;
23716;SDS011;22094;52.130;5.598;2023-01-29T05:47:49;35.70;;;23.63;;
23716;SDS011;22094;52.130;5.598;2023-01-29T05:50:15;34.63;;;22.65;;
23716;SDS011;22094;52.130;5.598;2023-01-29T05:52:41;34.28;;;22.33;;
23716;SDS011;22094;52.130;5.598;2023-01-29T05:55:07;38.45;;;23.10;;
23716;SDS011;22094;52.130;5.598;2023-01-29T05:57:33;36.67;;;23.15;;
23716;SDS011;22094;52.130;5.598;2023-01-29T05:59:59;36.88;;;23.23;;
23716;SDS011;22094;52.130;5.598;2023-01-29T06:02:24;34.67;;;22.48;;
23716;SDS011;22094;52.130;5.598;2023-01-29T06:04:53;35.92;;;23.55;;
23716;SDS011;22094;52.130;5.598;2023-01-29T06:07:18;38.47;;;23.85;;
23716;SDS011;22094;52.130;5.598;2023-01-29T06:09:44;38.55;;;23.63;;
23716;SDS011;22094;52.130;5.598;2023-01-29T06:12:09;35.38;;;23.33;;
23716;SDS011;22094;52.130;5.598;2023-01-29T06:14:35;36.95;;;22.83;;
23716;SDS011;22094;52.130;5.598;2023-01-29T06:17:01;33.45;;;22.27;;
23716;SDS011;22094;52.130;5.598;2023-01-29T06:19:26;34.70;;;22.77;;
23716;SDS011;22094;52.130;5.598;2023-01-29T06:21:52;39.60;;;23.65;;
23716;SDS011;22094;52.130;5.598;2023-01-29T06:24:17;34.58;;;22.98;;
23716;SDS011;22094;52.130;5.598;2023-01-29T06:26:43;36.22;;;22.90;;
23716;SDS011;22094;52.130;5.598;2023-01-29T06:29:08;36.03;;;22.60;;
23716;SDS011;22094;52.130;5.598;2023-01-29T06:31:34;35.67;;;22.83;;
23716;SDS011;22094;52.130;5.598;2023-01-29T06:34:00;35.28;;;23.42;;
23716;SDS011;22094;52.130;5.598;2023-01-29T06:36:25;34.40;;;22.77;;
23716;SDS011;22094;52.130;5.598;2023-01-29T06:38:51;36.10;;;23.60;;
23716;SDS011;22094;52.130;5.598;2023-01-29T06:41:17;36.53;;;23.52;;
23716;SDS011;22094;52.130;5.598;2023-01-29T06:43:43;38.83;;;22.75;;
23716;SDS011;22094;52.130;5.598;2023-01-29T06:46:09;35.38;;;21.95;;
23716;SDS011;22094;52.130;5.598;2023-01-29T06:48:35;37.90;;;23.70;;
23716;SDS011;22094;52.130;5.598;2023-01-29T06:51:01;32.78;;;22.20;;
23716;SDS011;22094;52.130;5.598;2023-01-29T06:53:28;34.35;;;21.80;;
23716;SDS011;22094;52.130;5.598;2023-01-29T06:55:54;35.60;;;22.92;;
23716;SDS011;22094;52.130;5.598;2023-01-29T06:58:20;34.90;;;21.98;;
23716;SDS011;22094;52.130;5.598;2023-01-29T07:00:45;34.80;;;22.38;;
23716;SDS011;22094;52.130;5.598;2023-01-29T07:03:11;34.35;;;22.42;;
23716;SDS011;22094;52.130;5.598;2023-01-29T07:05:37;34.72;;;21.75;;
23716;SDS011;22094;52.130;5.598;2023-01-29T07:08:02;33.80;;;22.17;;
23716;SDS011;22094;52.130;5.598;2023-01-29T07:10:29;31.58;;;21.08;;
23716;SDS011;22094;52.130;5.598;2023-01-29T07:12:54;36.10;;;22.98;;
23716;SDS011;22094;52.130;5.598;2023-01-29T07:15:20;35.25;;;22.02;;
23716;SDS011;22094;52.130;5.598;2023-01-29T07:17:54;33.25;;;22.05;;
23716;SDS011;22094;52.130;5.598;2023-01-29T07:20:25;35.22;;;22.27;;
23716;SDS011;22094;52.130;5.598;2023-01-29T07:22:51;34.15;;;22.15;;
23716;SDS011;22094;52.130;5.598;2023-01-29T07:25:17;34.45;;;22.63;;
23716;SDS011;22094;52.130;5.598;2023-01-29T07:27:42;36.85;;;23.42;;
23716;SDS011;22094;52.130;5.598;2023-01-29T07:30:08;35.20;;;23.15;;
23716;SDS011;22094;52.130;5.598;2023-01-29T07:32:34;34.63;;;22.02;;
23716;SDS011;22094;52.130;5.598;2023-01-29T07:35:00;38.50;;;23.42;;
23716;SDS011;22094;52.130;5.598;2023-01-29T07:37:25;37.17;;;23.40;;
23716;SDS011;22094;52.130;5.598;2023-01-29T07:39:51;34.38;;;23.98;;
23716;SDS011;22094;52.130;5.598;2023-01-29T07:42:16;35.67;;;24.27;;
23716;SDS011;22094;52.130;5.598;2023-01-29T07:44:42;34.95;;;23.85;;
23716;SDS011;22094;52.130;5.598;2023-01-29T07:47:07;35.85;;;23.70;;
23716;SDS011;22094;52.130;5.598;2023-01-29T07:49:33;35.63;;;23.35;;
23716;SDS011;22094;52.130;5.598;2023-01-29T07:51:58;36.40;;;24.27;;
23716;SDS011;22094;52.130;5.598;2023-01-29T07:54:24;46.20;;;30.23;;
23716;SDS011;22094;52.130;5.598;2023-01-29T07:56:49;38.70;;;25.75;;
23716;SDS011;22094;52.130;5.598;2023-01-29T07:59:15;39.28;;;24.02;;
23716;SDS011;22094;52.130;5.598;2023-01-29T08:01:41;33.80;;;21.45;;
23716;SDS011;22094;52.130;5.598;2023-01-29T08:04:06;31.70;;;21.75;;
23716;SDS011;22094;52.130;5.598;2023-01-29T08:06:32;38.08;;;22.42;;
23716;SDS011;22094;52.130;5.598;2023-01-29T08:08:57;33.13;;;22.13;;
23716;SDS011;22094;52.130;5.598;2023-01-29T08:11:23;36.15;;;22.30;;
23716;SDS011;22094;52.130;5.598;2023-01-29T08:13:49;34.97;;;22.05;;
23716;SDS011;22094;52.130;5.598;2023-01-29T08:16:15;33.53;;;22.58;;
23716;SDS011;22094;52.130;5.598;2023-01-29T08:18:40;32.53;;;22.63;;
23716;SDS011;22094;52.130;5.598;2023-01-29T08:21:11;37.28;;;23.00;;
23716;SDS011;22094;52.130;5.598;2023-01-29T08:23:37;31.95;;;21.55;;
23716;SDS011;22094;52.130;5.598;2023-01-29T08:26:03;36.10;;;22.42;;
23716;SDS011;22094;52.130;5.598;2023-01-29T08:28:29;35.80;;;23.10;;
23716;SDS011;22094;52.130;5.598;2023-01-29T08:30:55;35.03;;;22.92;;
23716;SDS011;22094;52.130;5.598;2023-01-29T08:33:20;31.73;;;21.17;;
23716;SDS011;22094;52.130;5.598;2023-01-29T08:35:49;36.63;;;23.35;;
23716;SDS011;22094;52.130;5.598;2023-01-29T08:38:15;34.08;;;22.73;;
23716;SDS011;22094;52.130;5.598;2023-01-29T08:40:42;33.40;;;22.25;;
23716;SDS011;22094;52.130;5.598;2023-01-29T08:43:09;30.33;;;21.35;;
23716;SDS011;22094;52.130;5.598;2023-01-29T08:45:36;30.67;;;20.92;;
23716;SDS011;22094;52.130;5.598;2023-01-29T08:48:04;32.13;;;21.23;;
23716;SDS011;22094;52.130;5.598;2023-01-29T08:50:30;30.40;;;20.38;;
23716;SDS011;22094;52.130;5.598;2023-01-29T08:52:57;31.67;;;21.10;;
23716;SDS011;22094;52.130;5.598;2023-01-29T08:55:23;31.58;;;21.33;;
23716;SDS011;22094;52.130;5.598;2023-01-29T08:57:49;32.78;;;21.77;;
23716;SDS011;22094;52.130;5.598;2023-01-29T09:00:15;32.55;;;20.95;;
23716;SDS011;22094;52.130;5.598;2023-01-29T09:02:40;30.27;;;19.75;;
23716;SDS011;22094;52.130;5.598;2023-01-29T09:05:06;30.88;;;20.48;;
23716;SDS011;22094;52.130;5.598;2023-01-29T09:07:32;29.38;;;19.98;;
23716;SDS011;22094;52.130;5.598;2023-01-29T09:09:58;30.60;;;19.63;;
23716;SDS011;22094;52.130;5.598;2023-01-29T09:12:23;33.90;;;20.65;;
23716;SDS011;22094;52.130;5.598;2023-01-29T09:14:49;28.50;;;20.15;;
23716;SDS011;22094;52.130;5.598;2023-01-29T09:17:15;30.85;;;19.75;;
23716;SDS011;22094;52.130;5.598;2023-01-29T09:19:41;31.48;;;19.88;;
23716;SDS011;22094;52.130;5.598;2023-01-29T09:22:06;30.27;;;20.90;;
23716;SDS011;22094;52.130;5.598;2023-01-29T09:24:32;31.17;;;19.90;;
23716;SDS011;22094;52.130;5.598;2023-01-29T09:26:59;29.95;;;19.75;;
23716;SDS011;22094;52.130;5.598;2023-01-29T09:29:25;31.50;;;21.25;;
23716;SDS011;22094;52.130;5.598;2023-01-29T09:31:50;31.92;;;21.20;;
23716;SDS011;22094;52.130;5.598;2023-01-29T09:34:16;31.90;;;20.85;;
23716;SDS011;22094;52.130;5.598;2023-01-29T09:36:42;28.60;;;19.77;;
23716;SDS011;22094;52.130;5.598;2023-01-29T09:39:07;28.60;;;20.08;;
23716;SDS011;22094;52.130;5.598;2023-01-29T09:44:50;32.15;;;19.90;;
23716;SDS011;22094;52.130;5.598;2023-01-29T09:47:23;29.45;;;19.48;;
23716;SDS011;22094;52.130;5.598;2023-01-29T09:52:35;25.63;;;18.30;;
23716;SDS011;22094;52.130;5.598;2023-01-29T09:55:11;28.85;;;19.50;;
23716;SDS011;22094;52.130;5.598;2023-01-29T09:57:59;30.75;;;19.00;;
23716;SDS011;22094;52.130;5.598;2023-01-29T10:06:20;27.75;;;18.58;;
23716;SDS011;22094;52.130;5.598;2023-01-29T10:11:41;27.77;;;18.27;;
23716;SDS011;22094;52.130;5.598;2023-01-29T10:19:11;31.23;;;18.83;;
23716;SDS011;22094;52.130;5.598;2023-01-29T10:22:03;29.15;;;19.30;;
23716;SDS011;22094;52.130;5.598;2023-01-29T10:24:58;26.95;;;19.02;;
23716;SDS011;22094;52.130;5.598;2023-01-29T10:27:29;27.88;;;18.27;;
23716;SDS011;22094;52.130;5.598;2023-01-29T10:29:58;28.38;;;18.70;;
23716;SDS011;22094;52.130;5.598;2023-01-29T10:32:26;29.50;;;19.30;;
23716;SDS011;22094;52.130;5.598;2023-01-29T10:34:59;28.80;;;19.27;;
23716;SDS011;22094;52.130;5.598;2023-01-29T10:37:46;26.05;;;18.30;;
23716;SDS011;22094;52.130;5.598;2023-01-29T10:40:22;26.02;;;17.92;;
23716;SDS011;22094;52.130;5.598;2023-01-29T10:43:12;28.45;;;18.77;;
23716;SDS011;22094;52.130;5.598;2023-01-29T10:45:55;27.83;;;19.42;;
23716;SDS011;22094;52.130;5.598;2023-01-29T10:51:14;26.63;;;18.40;;
23716;SDS011;22094;52.130;5.598;2023-01-29T10:56:47;32.42;;;19.52;;
23716;SDS011;22094;52.130;5.598;2023-01-29T11:01:49;31.55;;;19.55;;
23716;SDS011;22094;52.130;5.598;2023-01-29T11:04:14;30.58;;;20.85;;
23716;SDS011;22094;52.130;5.598;2023-01-29T11:06:40;31.08;;;20.27;;
23716;SDS011;22094;52.130;5.598;2023-01-29T11:12:03;33.30;;;20.73;;
23716;SDS011;22094;52.130;5.598;2023-01-29T11:14:47;36.35;;;22.05;;
23716;SDS011;22094;52.130;5.598;2023-01-29T11:17:21;32.13;;;21.42;;
23716;SDS011;22094;52.130;5.598;2023-01-29T11:19:48;32.55;;;21.55;;
23716;SDS011;22094;52.130;5.598;2023-01-29T11:22:19;32.72;;;21.80;;
23716;SDS011;22094;52.130;5.598;2023-01-29T11:27:56;35.63;;;22.02;;
23716;SDS011;22094;52.130;5.598;2023-01-29T11:30:37;31.58;;;21.33;;
23716;SDS011;22094;52.130;5.598;2023-01-29T11:35:36;31.80;;;21.88;;
23716;SDS011;22094;52.130;5.598;2023-01-29T11:38:21;32.45;;;22.17;;
23716;SDS011;22094;52.130;5.598;2023-01-29T11:40:51;32.28;;;21.23;;
23716;SDS011;22094;52.130;5.598;2023-01-29T11:45:48;36.38;;;22.13;;
23716;SDS011;22094;52.130;5.598;2023-01-29T11:48:17;36.30;;;23.25;;
23716;SDS011;22094;52.130;5.598;2023-01-29T11:51:19;37.35;;;22.38;;
23716;SDS011;22094;52.130;5.598;2023-01-29T11:53:47;35.95;;;22.38;;
23716;SDS011;22094;52.130;5.598;2023-01-29T11:58:53;38.33;;;24.95;;
23716;SDS011;22094;52.130;5.598;2023-01-29T12:01:26;33.33;;;22.88;;
23716;SDS011;22094;52.130;5.598;2023-01-29T12:04:03;40.22;;;24.63;;
23716;SDS011;22094;52.130;5.598;2023-01-29T12:06:42;37.13;;;24.38;;
23716;SDS011;22094;52.130;5.598;2023-01-29T12:09:16;38.28;;;23.20;;
23716;SDS011;22094;52.130;5.598;2023-01-29T12:11:47;40.67;;;24.80;;
23716;SDS011;22094;52.130;5.598;2023-01-29T12:14:25;39.60;;;24.90;;
23716;SDS011;22094;52.130;5.598;2023-01-29T12:17:14;37.60;;;24.67;;
23716;SDS011;22094;52.130;5.598;2023-01-29T12:24:50;40.47;;;25.88;;
23716;SDS011;22094;52.130;5.598;2023-01-29T12:30:28;39.92;;;25.40;;
23716;SDS011;22094;52.130;5.598;2023-01-29T12:38:06;41.88;;;26.55;;
23716;SDS011;22094;52.130;5.598;2023-01-29T12:40:48;41.85;;;27.25;;
23716;SDS011;22094;52.130;5.598;2023-01-29T12:43:43;44.95;;;26.83;;
23716;SDS011;22094;52.130;5.598;2023-01-29T12:46:23;41.17;;;26.42;;
23716;SDS011;22094;52.130;5.598;2023-01-29T12:48:57;42.65;;;26.40;;
23716;SDS011;22094;52.130;5.598;2023-01-29T12:51:32;40.58;;;27.30;;
23716;SDS011;22094;52.130;5.598;2023-01-29T12:54:08;41.25;;;26.88;;
23716;SDS011;22094;52.130;5.598;2023-01-29T12:56:40;39.70;;;26.58;;
23716;SDS011;22094;52.130;5.598;2023-01-29T12:59:30;42.15;;;27.48;;
23716;SDS011;22094;52.130;5.598;2023-01-29T13:02:05;40.55;;;25.85;;
23716;SDS011;22094;52.130;5.598;2023-01-29T13:04:47;45.20;;;26.60;;
23716;SDS011;22094;52.130;5.598;2023-01-29T13:07:28;41.70;;;27.90;;
23716;SDS011;22094;52.130;5.598;2023-01-29T13:10:00;46.17;;;28.08;;
23716;SDS011;22094;52.130;5.598;2023-01-29T13:12:33;41.97;;;27.30;;
23716;SDS011;22094;52.130;5.598;2023-01-29T13:15:01;41.38;;;26.13;;
23716;SDS011;22094;52.130;5.598;2023-01-29T13:17:41;40.10;;;26.88;;
23716;SDS011;22094;52.130;5.598;2023-01-29T13:22:52;46.00;;;29.10;;
23716;SDS011;22094;52.130;5.598;2023-01-29T13:25:20;42.92;;;27.23;;
23716;SDS011;22094;52.130;5.598;2023-01-29T13:27:46;39.47;;;26.50;;
23716;SDS011;22094;52.130;5.598;2023-01-29T13:30:29;40.28;;;26.92;;
23716;SDS011;22094;52.130;5.598;2023-01-29T13:32:56;53.38;;;27.85;;
23716;SDS011;22094;52.130;5.598;2023-01-29T13:35:32;41.65;;;27.17;;
23716;SDS011;22094;52.130;5.598;2023-01-29T13:38:03;41.70;;;27.50;;
23716;SDS011;22094;52.130;5.598;2023-01-29T13:40:30;44.60;;;27.15;;
23716;SDS011;22094;52.130;5.598;2023-01-29T13:42:58;41.97;;;28.30;;
23716;SDS011;22094;52.130;5.598;2023-01-29T13:45:40;80.07;;;51.35;;
23716;SDS011;22094;52.130;5.598;2023-01-29T13:48:26;41.72;;;27.77;;
23716;SDS011;22094;52.130;5.598;2023-01-29T13:51:01;44.47;;;28.85;;
23716;SDS011;22094;52.130;5.598;2023-01-29T13:53:35;45.03;;;28.17;;
23716;SDS011;22094;52.130;5.598;2023-01-29T13:58:53;42.13;;;26.55;;
23716;SDS011;22094;52.130;5.598;2023-01-29T14:04:29;40.67;;;27.13;;
23716;SDS011;22094;52.130;5.598;2023-01-29T14:06:56;38.78;;;25.75;;
23716;SDS011;22094;52.130;5.598;2023-01-29T14:09:30;41.40;;;26.38;;
23716;SDS011;22094;52.130;5.598;2023-01-29T14:11:55;41.33;;;26.95;;
23716;SDS011;22094;52.130;5.598;2023-01-29T14:17:22;38.75;;;25.42;;
23716;SDS011;22094;52.130;5.598;2023-01-29T14:19:51;41.42;;;25.50;;
23716;SDS011;22094;52.130;5.598;2023-01-29T14:22:22;40.22;;;25.77;;
23716;SDS011;22094;52.130;5.598;2023-01-29T14:24:55;43.85;;;25.60;;
23716;SDS011;22094;52.130;5.598;2023-01-29T14:27:25;42.45;;;26.88;;
23716;SDS011;22094;52.130;5.598;2023-01-29T14:29:51;43.80;;;27.85;;
23716;SDS011;22094;52.130;5.598;2023-01-29T14:32:29;44.28;;;28.65;;
23716;SDS011;22094;52.130;5.598;2023-01-29T14:34:59;39.83;;;26.42;;
23716;SDS011;22094;52.130;5.598;2023-01-29T14:37:30;43.03;;;27.20;;
23716;SDS011;22094;52.130;5.598;2023-01-29T14:40:19;42.85;;;25.98;;
23716;SDS011;22094;52.130;5.598;2023-01-29T14:45:43;38.70;;;26.35;;
23716;SDS011;22094;52.130;5.598;2023-01-29T14:53:03;41.15;;;26.08;;
23716;SDS011;22094;52.130;5.598;2023-01-29T14:56:00;40.58;;;26.20;;
23716;SDS011;22094;52.130;5.598;2023-01-29T15:00:53;40.25;;;26.50;;
23716;SDS011;22094;52.130;5.598;2023-01-29T15:03:29;41.53;;;26.73;;
23716;SDS011;22094;52.130;5.598;2023-01-29T15:06:08;41.55;;;26.08;;
23716;SDS011;22094;52.130;5.598;2023-01-29T15:08:44;41.88;;;27.17;;
23716;SDS011;22094;52.130;5.598;2023-01-29T15:11:41;48.05;;;27.00;;
23716;SDS011;22094;52.130;5.598;2023-01-29T15:14:13;44.10;;;27.00;;
23716;SDS011;22094;52.130;5.598;2023-01-29T15:19:22;43.80;;;27.23;;
23716;SDS011;22094;52.130;5.598;2023-01-29T15:22:02;43.35;;;26.58;;
23716;SDS011;22094;52.130;5.598;2023-01-29T15:24:28;43.97;;;27.63;;
23716;SDS011;22094;52.130;5.598;2023-01-29T15:26:57;43.42;;;28.00;;
23716;SDS011;22094;52.130;5.598;2023-01-29T15:29:23;44.92;;;27.60;;
23716;SDS011;22094;52.130;5.598;2023-01-29T15:31:51;43.58;;;26.75;;
23716;SDS011;22094;52.130;5.598;2023-01-29T15:34:17;45.33;;;27.55;;
23716;SDS011;22094;52.130;5.598;2023-01-29T15:36:43;42.72;;;27.98;;
23716;SDS011;22094;52.130;5.598;2023-01-29T15:41:36;41.83;;;27.38;;
23716;SDS011;22094;52.130;5.598;2023-01-29T15:44:02;42.33;;;27.23;;
23716;SDS011;22094;52.130;5.598;2023-01-29T15:46:37;42.90;;;27.85;;
23716;SDS011;22094;52.130;5.598;2023-01-29T15:49:06;44.33;;;29.10;;
23716;SDS011;22094;52.130;5.598;2023-01-29T15:51:35;46.58;;;28.38;;
23716;SDS011;22094;52.130;5.598;2023-01-29T15:54:03;47.15;;;28.77;;
23716;SDS011;22094;52.130;5.598;2023-01-29T15:56:39;44.72;;;27.35;;
23716;SDS011;22094;52.130;5.598;2023-01-29T15:59:11;49.15;;;28.67;;
23716;SDS011;22094;52.130;5.598;2023-01-29T16:01:50;45.13;;;27.45;;
23716;SDS011;22094;52.130;5.598;2023-01-29T16:04:23;43.78;;;27.30;;
23716;SDS011;22094;52.130;5.598;2023-01-29T16:06:52;45.08;;;29.45;;
23716;SDS011;22094;52.130;5.598;2023-01-29T16:09:20;47.20;;;29.85;;
23716;SDS011;22094;52.130;5.598;2023-01-29T16:11:50;41.75;;;27.83;;
23716;SDS011;22094;52.130;5.598;2023-01-29T16:14:19;44.63;;;28.38;;
23716;SDS011;22094;52.130;5.598;2023-01-29T16:16:47;43.42;;;27.88;;
23716;SDS011;22094;52.130;5.598;2023-01-29T16:19:19;50.17;;;30.92;;
23716;SDS011;22094;52.130;5.598;2023-01-29T16:21:53;46.47;;;29.10;;
23716;SDS011;22094;52.130;5.598;2023-01-29T16:24:21;43.40;;;28.05;;
23716;SDS011;22094;52.130;5.598;2023-01-29T16:26:49;46.45;;;29.15;;
23716;SDS011;22094;52.130;5.598;2023-01-29T16:29:21;50.17;;;30.25;;
23716;SDS011;22094;52.130;5.598;2023-01-29T16:31:51;49.13;;;29.77;;
23716;SDS011;22094;52.130;5.598;2023-01-29T16:34:25;46.08;;;29.25;;
23716;SDS011;22094;52.130;5.598;2023-01-29T16:36:54;48.78;;;29.63;;
23716;SDS011;22094;52.130;5.598;2023-01-29T16:39:25;52.53;;;32.10;;
23716;SDS011;22094;52.130;5.598;2023-01-29T16:44:51;51.63;;;32.13;;
23716;SDS011;22094;52.130;5.598;2023-01-29T16:47:25;56.55;;;32.95;;